Aérodrome :
LOGIN :

S'inscrire | Disclaimer

   EN    FR    IT 

 










Légende :    VFR   VFR Marginal   IFR   IFR Intensif   IFR Très Intensif
Visi : 
Plafond : 
>= 8 km
>= 3000ft
5 à 8 km
1000 à 3000 ft
1500m à 5 km
500 à 1000 ft
800 à 1500m
200 à 500 ft
< 800m
< 200 ft
Symboles :   Orages  Brouillard  Fortes neiges  Fortes précipitations  Vent > 20 kt
SIGMETs :   Divers  Orages  Givrage  Turbulence  Onde Orograph.  Cendres Volcan.







- Altitude de l'aérodrome : 126 ft
- Code IATA : WIC
- Voir les cartes d'approche


EGPC - Wick

DERNIER METAR :
  • 230650Z 27007KT 9999 FEW018 M00/M02 Q0997 REFZRA

METARs EXPIRÉS :
  • 230620Z AUTO 28008KT 9999 -FZRA NCD M00/M01 Q0997
  • 230550Z AUTO 28008KT 9999 -FZRA NCD M01/M01 Q0997
  • 230520Z AUTO 29008KT 9999 -FZRA NCD M00/M01 Q0997
  • 230450Z AUTO 28011KT 9999 -RA NCD 00/M01 Q0997 REFZRA
  • 230420Z AUTO 28009KT 9999 -FZRA FEW011/// SCT022/// M00/M01 Q0997

TAF TAF EGPC
Valide du 23 à 06h jusqu'au 23 à 15h UTC


230653Z 2306/2315 27009KT 9999 FEW020
PROB40
TEMPO 2306/2315 6000 SHRASN BKN012CB
ATIS : +44 1955 607 596
Pas de NOTAMs connus pour ce terrain.



MET'MAP, la Météo Aéronautique d'un coup d'oeil ! - Copyright ORBIFLY Décembre 2007 - Disclaimer

ORBIFLY MET'MAP TEAM :

Programmation & Développement : Alexandra Zaïnal
Conception & Développement : Baudouin d'Aumeries
Co-Programmation & Développement : Marc-Olivier Méhu
Soutien technique & logistique : Manuel Goepfert

Contact : metmap@orbifly.com




SOURCES & CREDITS :

   NOAA